sensor_id;sensor_type;location;lat;lon;timestamp;P1;durP1;ratioP1;P2;durP2;ratioP2
5452;SDS011;2749;53.576;9.822;2023-03-24T00:00:14;7.53;;;4.60;;
5452;SDS011;2749;53.576;9.822;2023-03-24T00:02:41;5.53;;;3.43;;
5452;SDS011;2749;53.576;9.822;2023-03-24T00:05:10;4.10;;;3.57;;
5452;SDS011;2749;53.576;9.822;2023-03-24T00:07:37;4.60;;;3.90;;
5452;SDS011;2749;53.576;9.822;2023-03-24T00:10:07;5.37;;;3.63;;
5452;SDS011;2749;53.576;9.822;2023-03-24T00:12:34;6.00;;;4.30;;
5452;SDS011;2749;53.576;9.822;2023-03-24T00:15:02;5.50;;;3.77;;
5452;SDS011;2749;53.576;9.822;2023-03-24T00:17:28;7.40;;;3.40;;
5452;SDS011;2749;53.576;9.822;2023-03-24T00:19:54;6.93;;;3.30;;
5452;SDS011;2749;53.576;9.822;2023-03-24T00:22:21;7.67;;;3.90;;
5452;SDS011;2749;53.576;9.822;2023-03-24T00:24:47;4.27;;;3.10;;
5452;SDS011;2749;53.576;9.822;2023-03-24T00:27:13;4.63;;;3.37;;
5452;SDS011;2749;53.576;9.822;2023-03-24T00:29:41;9.37;;;3.63;;
5452;SDS011;2749;53.576;9.822;2023-03-24T00:32:07;5.90;;;3.00;;
5452;SDS011;2749;53.576;9.822;2023-03-24T00:34:33;4.67;;;3.93;;
5452;SDS011;2749;53.576;9.822;2023-03-24T00:37:02;5.90;;;3.57;;
5452;SDS011;2749;53.576;9.822;2023-03-24T00:39:28;4.10;;;2.93;;
5452;SDS011;2749;53.576;9.822;2023-03-24T00:41:54;4.90;;;3.20;;
5452;SDS011;2749;53.576;9.822;2023-03-24T00:44:22;4.80;;;3.33;;
5452;SDS011;2749;53.576;9.822;2023-03-24T00:46:49;4.13;;;2.50;;
5452;SDS011;2749;53.576;9.822;2023-03-24T00:49:24;4.17;;;3.07;;
5452;SDS011;2749;53.576;9.822;2023-03-24T00:52:07;4.20;;;3.50;;
5452;SDS011;2749;53.576;9.822;2023-03-24T00:54:34;6.13;;;3.90;;
5452;SDS011;2749;53.576;9.822;2023-03-24T00:57:00;7.23;;;3.00;;
5452;SDS011;2749;53.576;9.822;2023-03-24T00:59:27;7.80;;;3.90;;
5452;SDS011;2749;53.576;9.822;2023-03-24T01:01:53;3.40;;;2.67;;
5452;SDS011;2749;53.576;9.822;2023-03-24T01:04:20;4.40;;;3.30;;
5452;SDS011;2749;53.576;9.822;2023-03-24T01:06:50;6.73;;;3.33;;
5452;SDS011;2749;53.576;9.822;2023-03-24T01:09:16;4.70;;;2.80;;
5452;SDS011;2749;53.576;9.822;2023-03-24T01:11:45;9.60;;;3.60;;
5452;SDS011;2749;53.576;9.822;2023-03-24T01:14:11;4.87;;;3.30;;
5452;SDS011;2749;53.576;9.822;2023-03-24T01:16:37;4.13;;;2.90;;
5452;SDS011;2749;53.576;9.822;2023-03-24T01:19:03;5.57;;;3.80;;
5452;SDS011;2749;53.576;9.822;2023-03-24T01:21:31;4.13;;;3.63;;
5452;SDS011;2749;53.576;9.822;2023-03-24T01:23:59;7.10;;;3.47;;
5452;SDS011;2749;53.576;9.822;2023-03-24T01:26:26;3.90;;;3.20;;
5452;SDS011;2749;53.576;9.822;2023-03-24T01:28:52;5.27;;;3.10;;
5452;SDS011;2749;53.576;9.822;2023-03-24T01:31:18;8.83;;;3.27;;
5452;SDS011;2749;53.576;9.822;2023-03-24T01:33:44;9.13;;;4.07;;
5452;SDS011;2749;53.576;9.822;2023-03-24T01:36:10;3.93;;;2.90;;
5452;SDS011;2749;53.576;9.822;2023-03-24T01:38:36;6.70;;;3.27;;
5452;SDS011;2749;53.576;9.822;2023-03-24T01:41:02;5.70;;;3.90;;
5452;SDS011;2749;53.576;9.822;2023-03-24T01:43:29;4.10;;;3.30;;
5452;SDS011;2749;53.576;9.822;2023-03-24T01:46:00;5.10;;;3.03;;
5452;SDS011;2749;53.576;9.822;2023-03-24T01:48:29;9.80;;;3.50;;
5452;SDS011;2749;53.576;9.822;2023-03-24T01:51:07;3.83;;;3.17;;
5452;SDS011;2749;53.576;9.822;2023-03-24T01:53:35;6.63;;;3.67;;
5452;SDS011;2749;53.576;9.822;2023-03-24T01:56:02;4.10;;;3.53;;
5452;SDS011;2749;53.576;9.822;2023-03-24T01:58:30;9.80;;;3.77;;
5452;SDS011;2749;53.576;9.822;2023-03-24T02:00:57;8.70;;;3.93;;
5452;SDS011;2749;53.576;9.822;2023-03-24T02:03:23;5.73;;;3.40;;
5452;SDS011;2749;53.576;9.822;2023-03-24T02:05:51;5.60;;;3.70;;
5452;SDS011;2749;53.576;9.822;2023-03-24T02:08:22;6.20;;;4.10;;
5452;SDS011;2749;53.576;9.822;2023-03-24T02:10:50;3.40;;;3.10;;
5452;SDS011;2749;53.576;9.822;2023-03-24T02:13:18;4.03;;;3.17;;
5452;SDS011;2749;53.576;9.822;2023-03-24T02:15:50;4.93;;;3.83;;
5452;SDS011;2749;53.576;9.822;2023-03-24T02:18:37;4.30;;;3.67;;
5452;SDS011;2749;53.576;9.822;2023-03-24T02:28:58;4.67;;;3.30;;
5452;SDS011;2749;53.576;9.822;2023-03-24T02:36:41;6.47;;;4.10;;
5452;SDS011;2749;53.576;9.822;2023-03-24T02:39:23;6.93;;;4.03;;
5452;SDS011;2749;53.576;9.822;2023-03-24T02:49:33;9.13;;;4.13;;
5452;SDS011;2749;53.576;9.822;2023-03-24T02:57:25;5.93;;;3.90;;
5452;SDS011;2749;53.576;9.822;2023-03-24T02:59:59;6.53;;;3.80;;
5452;SDS011;2749;53.576;9.822;2023-03-24T03:02:32;6.30;;;3.70;;
5452;SDS011;2749;53.576;9.822;2023-03-24T03:05:00;4.93;;;3.97;;
5452;SDS011;2749;53.576;9.822;2023-03-24T03:07:28;8.40;;;4.20;;
5452;SDS011;2749;53.576;9.822;2023-03-24T03:12:33;5.00;;;4.07;;
5452;SDS011;2749;53.576;9.822;2023-03-24T03:15:11;7.47;;;3.90;;
5452;SDS011;2749;53.576;9.822;2023-03-24T03:17:40;6.73;;;4.37;;
5452;SDS011;2749;53.576;9.822;2023-03-24T03:20:12;3.83;;;3.53;;
5452;SDS011;2749;53.576;9.822;2023-03-24T03:22:46;6.47;;;4.30;;
5452;SDS011;2749;53.576;9.822;2023-03-24T03:25:14;6.73;;;4.23;;
5452;SDS011;2749;53.576;9.822;2023-03-24T03:27:41;5.40;;;4.90;;
5452;SDS011;2749;53.576;9.822;2023-03-24T03:30:11;4.60;;;4.00;;
5452;SDS011;2749;53.576;9.822;2023-03-24T03:32:41;5.60;;;4.43;;
5452;SDS011;2749;53.576;9.822;2023-03-24T03:35:10;5.67;;;4.50;;
5452;SDS011;2749;53.576;9.822;2023-03-24T03:37:46;4.90;;;4.43;;
5452;SDS011;2749;53.576;9.822;2023-03-24T03:40:16;8.83;;;5.10;;
5452;SDS011;2749;53.576;9.822;2023-03-24T03:42:45;9.10;;;5.30;;
5452;SDS011;2749;53.576;9.822;2023-03-24T03:45:11;5.50;;;4.40;;
5452;SDS011;2749;53.576;9.822;2023-03-24T03:47:38;5.50;;;4.90;;
5452;SDS011;2749;53.576;9.822;2023-03-24T03:50:05;5.47;;;4.87;;
5452;SDS011;2749;53.576;9.822;2023-03-24T03:52:32;5.90;;;5.23;;
5452;SDS011;2749;53.576;9.822;2023-03-24T03:54:58;5.20;;;4.70;;
5452;SDS011;2749;53.576;9.822;2023-03-24T03:57:24;5.97;;;5.30;;
5452;SDS011;2749;53.576;9.822;2023-03-24T03:59:51;7.53;;;6.03;;
5452;SDS011;2749;53.576;9.822;2023-03-24T04:02:40;6.70;;;6.10;;
5452;SDS011;2749;53.576;9.822;2023-03-24T04:05:23;6.67;;;6.07;;
5452;SDS011;2749;53.576;9.822;2023-03-24T04:08:01;6.33;;;5.50;;
5452;SDS011;2749;53.576;9.822;2023-03-24T04:10:42;6.10;;;5.60;;
5452;SDS011;2749;53.576;9.822;2023-03-24T04:15:54;6.53;;;5.27;;
5452;SDS011;2749;53.576;9.822;2023-03-24T04:18:43;6.77;;;5.80;;
5452;SDS011;2749;53.576;9.822;2023-03-24T04:29:07;8.63;;;4.43;;
5452;SDS011;2749;53.576;9.822;2023-03-24T04:31:39;6.23;;;5.40;;
5452;SDS011;2749;53.576;9.822;2023-03-24T04:34:12;6.67;;;4.53;;
5452;SDS011;2749;53.576;9.822;2023-03-24T04:36:46;5.70;;;4.97;;
5452;SDS011;2749;53.576;9.822;2023-03-24T04:39:19;7.83;;;5.40;;
5452;SDS011;2749;53.576;9.822;2023-03-24T04:41:51;9.43;;;4.33;;
5452;SDS011;2749;53.576;9.822;2023-03-24T04:44:18;6.90;;;5.13;;
5452;SDS011;2749;53.576;9.822;2023-03-24T04:46:46;6.83;;;6.20;;
5452;SDS011;2749;53.576;9.822;2023-03-24T04:49:12;5.37;;;4.87;;
5452;SDS011;2749;53.576;9.822;2023-03-24T04:51:38;5.47;;;4.77;;
5452;SDS011;2749;53.576;9.822;2023-03-24T04:54:04;6.60;;;6.00;;
5452;SDS011;2749;53.576;9.822;2023-03-24T04:56:33;6.50;;;4.67;;
5452;SDS011;2749;53.576;9.822;2023-03-24T04:59:01;5.67;;;5.17;;
5452;SDS011;2749;53.576;9.822;2023-03-24T05:01:28;6.20;;;5.03;;
5452;SDS011;2749;53.576;9.822;2023-03-24T05:03:58;9.53;;;5.53;;
5452;SDS011;2749;53.576;9.822;2023-03-24T05:06:24;4.97;;;4.57;;
5452;SDS011;2749;53.576;9.822;2023-03-24T05:08:51;6.97;;;5.77;;
5452;SDS011;2749;53.576;9.822;2023-03-24T05:11:18;5.47;;;4.60;;
5452;SDS011;2749;53.576;9.822;2023-03-24T05:13:45;5.07;;;4.57;;
5452;SDS011;2749;53.576;9.822;2023-03-24T05:16:11;6.50;;;5.90;;
5452;SDS011;2749;53.576;9.822;2023-03-24T05:18:37;6.70;;;6.10;;
5452;SDS011;2749;53.576;9.822;2023-03-24T05:21:03;5.20;;;4.80;;
5452;SDS011;2749;53.576;9.822;2023-03-24T05:23:30;6.93;;;5.20;;
5452;SDS011;2749;53.576;9.822;2023-03-24T05:25:56;6.93;;;5.87;;
5452;SDS011;2749;53.576;9.822;2023-03-24T05:28:22;5.97;;;5.33;;
5452;SDS011;2749;53.576;9.822;2023-03-24T05:30:48;10.43;;;5.63;;
5452;SDS011;2749;53.576;9.822;2023-03-24T05:33:14;6.17;;;5.57;;
5452;SDS011;2749;53.576;9.822;2023-03-24T05:35:40;6.30;;;5.70;;
5452;SDS011;2749;53.576;9.822;2023-03-24T05:38:06;7.40;;;5.73;;
5452;SDS011;2749;53.576;9.822;2023-03-24T05:40:32;6.40;;;5.83;;
5452;SDS011;2749;53.576;9.822;2023-03-24T05:42:58;5.93;;;5.43;;
5452;SDS011;2749;53.576;9.822;2023-03-24T05:45:24;7.00;;;6.30;;
5452;SDS011;2749;53.576;9.822;2023-03-24T05:47:50;6.93;;;5.47;;
5452;SDS011;2749;53.576;9.822;2023-03-24T05:50:16;7.30;;;6.60;;
5452;SDS011;2749;53.576;9.822;2023-03-24T05:52:42;10.50;;;6.27;;
5452;SDS011;2749;53.576;9.822;2023-03-24T05:55:09;6.13;;;5.07;;
5452;SDS011;2749;53.576;9.822;2023-03-24T05:57:35;6.83;;;6.23;;
5452;SDS011;2749;53.576;9.822;2023-03-24T06:00:05;6.30;;;5.70;;
5452;SDS011;2749;53.576;9.822;2023-03-24T06:02:40;6.07;;;5.37;;
5452;SDS011;2749;53.576;9.822;2023-03-24T06:05:06;7.00;;;5.07;;
5452;SDS011;2749;53.576;9.822;2023-03-24T06:07:36;6.43;;;5.97;;
5452;SDS011;2749;53.576;9.822;2023-03-24T06:10:02;5.40;;;4.97;;
5452;SDS011;2749;53.576;9.822;2023-03-24T06:12:29;6.67;;;6.10;;
5452;SDS011;2749;53.576;9.822;2023-03-24T06:14:55;6.20;;;5.60;;
5452;SDS011;2749;53.576;9.822;2023-03-24T06:17:22;5.73;;;5.23;;
5452;SDS011;2749;53.576;9.822;2023-03-24T06:19:48;6.30;;;5.57;;
5452;SDS011;2749;53.576;9.822;2023-03-24T06:22:17;6.17;;;5.40;;
5452;SDS011;2749;53.576;9.822;2023-03-24T06:24:44;6.30;;;5.43;;
5452;SDS011;2749;53.576;9.822;2023-03-24T06:27:14;6.67;;;5.47;;
5452;SDS011;2749;53.576;9.822;2023-03-24T06:29:42;7.20;;;5.23;;
5452;SDS011;2749;53.576;9.822;2023-03-24T06:32:08;7.10;;;6.40;;
5452;SDS011;2749;53.576;9.822;2023-03-24T06:34:35;8.03;;;7.23;;
5452;SDS011;2749;53.576;9.822;2023-03-24T06:37:02;6.90;;;6.40;;
5452;SDS011;2749;53.576;9.822;2023-03-24T06:39:28;5.67;;;5.07;;
5452;SDS011;2749;53.576;9.822;2023-03-24T06:41:54;4.83;;;4.40;;
5452;SDS011;2749;53.576;9.822;2023-03-24T06:44:20;5.97;;;5.27;;
5452;SDS011;2749;53.576;9.822;2023-03-24T06:46:46;4.90;;;4.50;;
5452;SDS011;2749;53.576;9.822;2023-03-24T06:49:12;4.47;;;4.07;;
5452;SDS011;2749;53.576;9.822;2023-03-24T06:51:38;4.83;;;4.33;;
5452;SDS011;2749;53.576;9.822;2023-03-24T06:54:04;4.73;;;4.33;;
5452;SDS011;2749;53.576;9.822;2023-03-24T06:56:30;4.70;;;4.30;;
5452;SDS011;2749;53.576;9.822;2023-03-24T06:58:56;4.90;;;4.50;;
5452;SDS011;2749;53.576;9.822;2023-03-24T07:01:22;4.77;;;4.37;;
5452;SDS011;2749;53.576;9.822;2023-03-24T07:03:48;4.80;;;4.40;;
5452;SDS011;2749;53.576;9.822;2023-03-24T07:06:14;5.73;;;5.23;;
5452;SDS011;2749;53.576;9.822;2023-03-24T07:08:40;5.40;;;4.97;;
5452;SDS011;2749;53.576;9.822;2023-03-24T07:11:06;5.63;;;4.87;;
5452;SDS011;2749;53.576;9.822;2023-03-24T07:13:33;4.47;;;4.13;;
5452;SDS011;2749;53.576;9.822;2023-03-24T07:15:59;4.50;;;4.10;;
5452;SDS011;2749;53.576;9.822;2023-03-24T07:18:25;4.23;;;3.83;;
5452;SDS011;2749;53.576;9.822;2023-03-24T07:20:51;5.10;;;3.60;;
5452;SDS011;2749;53.576;9.822;2023-03-24T07:23:17;4.70;;;4.23;;
5452;SDS011;2749;53.576;9.822;2023-03-24T07:25:43;4.43;;;3.50;;
5452;SDS011;2749;53.576;9.822;2023-03-24T07:28:09;3.60;;;2.23;;
5452;SDS011;2749;53.576;9.822;2023-03-24T07:30:35;7.73;;;2.90;;
5452;SDS011;2749;53.576;9.822;2023-03-24T07:33:05;7.20;;;2.90;;
5452;SDS011;2749;53.576;9.822;2023-03-24T07:35:31;6.63;;;2.13;;
5452;SDS011;2749;53.576;9.822;2023-03-24T07:37:58;2.63;;;1.60;;
5452;SDS011;2749;53.576;9.822;2023-03-24T07:40:24;3.40;;;2.10;;
5452;SDS011;2749;53.576;9.822;2023-03-24T07:42:50;3.27;;;2.70;;
5452;SDS011;2749;53.576;9.822;2023-03-24T07:45:16;3.30;;;1.80;;
5452;SDS011;2749;53.576;9.822;2023-03-24T07:47:43;3.83;;;2.20;;
5452;SDS011;2749;53.576;9.822;2023-03-24T07:50:09;4.90;;;2.50;;
5452;SDS011;2749;53.576;9.822;2023-03-24T07:52:36;2.10;;;1.70;;
5452;SDS011;2749;53.576;9.822;2023-03-24T07:55:02;3.50;;;2.10;;
5452;SDS011;2749;53.576;9.822;2023-03-24T07:57:28;5.00;;;2.20;;
5452;SDS011;2749;53.576;9.822;2023-03-24T07:59:54;4.03;;;1.90;;
5452;SDS011;2749;53.576;9.822;2023-03-24T08:02:20;2.57;;;1.50;;
5452;SDS011;2749;53.576;9.822;2023-03-24T08:04:49;4.57;;;2.27;;
5452;SDS011;2749;53.576;9.822;2023-03-24T08:07:17;5.27;;;2.47;;
5452;SDS011;2749;53.576;9.822;2023-03-24T08:09:44;3.30;;;2.07;;
5452;SDS011;2749;53.576;9.822;2023-03-24T08:12:10;4.93;;;1.90;;
5452;SDS011;2749;53.576;9.822;2023-03-24T08:14:35;6.17;;;2.03;;
5452;SDS011;2749;53.576;9.822;2023-03-24T08:17:01;2.90;;;2.60;;
5452;SDS011;2749;53.576;9.822;2023-03-24T08:19:27;10.03;;;2.03;;
5452;SDS011;2749;53.576;9.822;2023-03-24T08:21:53;6.03;;;1.93;;
5452;SDS011;2749;53.576;9.822;2023-03-24T08:24:19;4.43;;;1.80;;
5452;SDS011;2749;53.576;9.822;2023-03-24T08:26:45;5.07;;;1.23;;
5452;SDS011;2749;53.576;9.822;2023-03-24T08:29:12;7.13;;;1.97;;
5452;SDS011;2749;53.576;9.822;2023-03-24T08:31:38;3.77;;;1.97;;
5452;SDS011;2749;53.576;9.822;2023-03-24T08:34:04;6.13;;;1.80;;
5452;SDS011;2749;53.576;9.822;2023-03-24T08:36:35;2.80;;;1.37;;
5452;SDS011;2749;53.576;9.822;2023-03-24T08:39:01;3.77;;;1.67;;
5452;SDS011;2749;53.576;9.822;2023-03-24T08:41:30;12.10;;;2.30;;
5452;SDS011;2749;53.576;9.822;2023-03-24T08:43:59;5.43;;;1.50;;
5452;SDS011;2749;53.576;9.822;2023-03-24T08:46:25;5.73;;;2.10;;
5452;SDS011;2749;53.576;9.822;2023-03-24T08:48:51;2.03;;;1.40;;
5452;SDS011;2749;53.576;9.822;2023-03-24T08:51:17;8.13;;;2.20;;
5452;SDS011;2749;53.576;9.822;2023-03-24T08:53:43;2.80;;;1.70;;
5452;SDS011;2749;53.576;9.822;2023-03-24T08:56:09;5.53;;;2.27;;
5452;SDS011;2749;53.576;9.822;2023-03-24T08:58:35;5.40;;;2.33;;
5452;SDS011;2749;53.576;9.822;2023-03-24T09:01:01;6.10;;;1.80;;
5452;SDS011;2749;53.576;9.822;2023-03-24T09:03:27;4.97;;;2.10;;
5452;SDS011;2749;53.576;9.822;2023-03-24T09:05:54;10.37;;;2.37;;
5452;SDS011;2749;53.576;9.822;2023-03-24T09:08:23;6.30;;;2.30;;
5452;SDS011;2749;53.576;9.822;2023-03-24T09:10:49;5.40;;;2.10;;
5452;SDS011;2749;53.576;9.822;2023-03-24T09:13:16;4.37;;;1.50;;
5452;SDS011;2749;53.576;9.822;2023-03-24T09:15:46;4.17;;;2.43;;
5452;SDS011;2749;53.576;9.822;2023-03-24T09:18:12;5.17;;;1.37;;
5452;SDS011;2749;53.576;9.822;2023-03-24T09:20:38;6.07;;;2.20;;
5452;SDS011;2749;53.576;9.822;2023-03-24T09:23:04;2.60;;;1.97;;
5452;SDS011;2749;53.576;9.822;2023-03-24T09:25:30;5.00;;;1.97;;
5452;SDS011;2749;53.576;9.822;2023-03-24T09:27:56;4.93;;;1.60;;
5452;SDS011;2749;53.576;9.822;2023-03-24T09:30:22;4.27;;;1.93;;
5452;SDS011;2749;53.576;9.822;2023-03-24T09:32:48;7.93;;;1.90;;
5452;SDS011;2749;53.576;9.822;2023-03-24T09:35:14;4.50;;;1.40;;
5452;SDS011;2749;53.576;9.822;2023-03-24T09:37:40;8.63;;;2.27;;
5452;SDS011;2749;53.576;9.822;2023-03-24T09:40:09;13.80;;;2.80;;
5452;SDS011;2749;53.576;9.822;2023-03-24T09:42:38;6.97;;;1.60;;
5452;SDS011;2749;53.576;9.822;2023-03-24T09:45:12;5.73;;;1.90;;
5452;SDS011;2749;53.576;9.822;2023-03-24T09:47:41;11.90;;;2.67;;
5452;SDS011;2749;53.576;9.822;2023-03-24T09:50:22;5.13;;;1.90;;
5452;SDS011;2749;53.576;9.822;2023-03-24T09:52:50;4.57;;;1.80;;
5452;SDS011;2749;53.576;9.822;2023-03-24T09:55:22;7.50;;;2.13;;
5452;SDS011;2749;53.576;9.822;2023-03-24T09:57:49;3.47;;;1.53;;
5452;SDS011;2749;53.576;9.822;2023-03-24T10:00:16;6.30;;;3.27;;
5452;SDS011;2749;53.576;9.822;2023-03-24T10:02:43;8.80;;;2.20;;
5452;SDS011;2749;53.576;9.822;2023-03-24T10:05:13;4.70;;;2.13;;
5452;SDS011;2749;53.576;9.822;2023-03-24T10:08:42;5.60;;;3.37;;
5452;SDS011;2749;53.576;9.822;2023-03-24T10:10:47;8.63;;;2.07;;
5452;SDS011;2749;53.576;9.822;2023-03-24T10:13:20;8.37;;;1.97;;
5452;SDS011;2749;53.576;9.822;2023-03-24T10:16:06;4.87;;;2.33;;
5452;SDS011;2749;53.576;9.822;2023-03-24T10:18:37;5.10;;;1.63;;
5452;SDS011;2749;53.576;9.822;2023-03-24T10:21:06;5.20;;;2.00;;
5452;SDS011;2749;53.576;9.822;2023-03-24T10:31:31;7.40;;;1.97;;
5452;SDS011;2749;53.576;9.822;2023-03-24T10:33:58;6.30;;;2.10;;
5452;SDS011;2749;53.576;9.822;2023-03-24T10:36:24;5.60;;;1.77;;
5452;SDS011;2749;53.576;9.822;2023-03-24T10:38:50;4.50;;;2.30;;
5452;SDS011;2749;53.576;9.822;2023-03-24T10:41:17;5.33;;;1.30;;
5452;SDS011;2749;53.576;9.822;2023-03-24T10:43:44;4.47;;;1.50;;
5452;SDS011;2749;53.576;9.822;2023-03-24T10:46:11;6.70;;;1.97;;
5452;SDS011;2749;53.576;9.822;2023-03-24T10:51:06;2.97;;;2.13;;
5452;SDS011;2749;53.576;9.822;2023-03-24T10:53:32;5.50;;;1.60;;
5452;SDS011;2749;53.576;9.822;2023-03-24T10:55:58;6.60;;;2.40;;
5452;SDS011;2749;53.576;9.822;2023-03-24T10:58:28;5.90;;;1.77;;
5452;SDS011;2749;53.576;9.822;2023-03-24T11:00:55;10.30;;;1.77;;
5452;SDS011;2749;53.576;9.822;2023-03-24T11:03:28;5.13;;;1.63;;
5452;SDS011;2749;53.576;9.822;2023-03-24T11:05:59;4.50;;;2.00;;
5452;SDS011;2749;53.576;9.822;2023-03-24T11:10:52;5.00;;;2.20;;
5452;SDS011;2749;53.576;9.822;2023-03-24T11:13:40;8.60;;;3.50;;
5452;SDS011;2749;53.576;9.822;2023-03-24T11:18:34;9.43;;;1.87;;
5452;SDS011;2749;53.576;9.822;2023-03-24T11:21:00;3.90;;;1.93;;
5452;SDS011;2749;53.576;9.822;2023-03-24T11:26:04;4.50;;;2.40;;
5452;SDS011;2749;53.576;9.822;2023-03-24T11:28:34;14.10;;;3.00;;
5452;SDS011;2749;53.576;9.822;2023-03-24T11:31:01;6.30;;;1.83;;
5452;SDS011;2749;53.576;9.822;2023-03-24T11:33:30;9.73;;;2.00;;
5452;SDS011;2749;53.576;9.822;2023-03-24T11:35:58;2.63;;;2.00;;
5452;SDS011;2749;53.576;9.822;2023-03-24T11:38:28;5.63;;;1.83;;
5452;SDS011;2749;53.576;9.822;2023-03-24T11:40:55;10.53;;;3.37;;
5452;SDS011;2749;53.576;9.822;2023-03-24T11:43:26;4.80;;;1.67;;
5452;SDS011;2749;53.576;9.822;2023-03-24T11:45:58;4.50;;;1.90;;
5452;SDS011;2749;53.576;9.822;2023-03-24T11:48:26;5.90;;;1.87;;
5452;SDS011;2749;53.576;9.822;2023-03-24T11:50:55;5.30;;;1.90;;
5452;SDS011;2749;53.576;9.822;2023-03-24T11:53:22;8.03;;;1.73;;
5452;SDS011;2749;53.576;9.822;2023-03-24T11:55:51;6.50;;;2.03;;
5452;SDS011;2749;53.576;9.822;2023-03-24T12:00:54;7.60;;;2.07;;
5452;SDS011;2749;53.576;9.822;2023-03-24T12:06:15;6.20;;;2.30;;
5452;SDS011;2749;53.576;9.822;2023-03-24T12:08:50;5.90;;;2.57;;
5452;SDS011;2749;53.576;9.822;2023-03-24T12:14:02;4.97;;;2.60;;
5452;SDS011;2749;53.576;9.822;2023-03-24T12:16:33;4.20;;;1.83;;
5452;SDS011;2749;53.576;9.822;2023-03-24T12:22:05;6.27;;;2.43;;
5452;SDS011;2749;53.576;9.822;2023-03-24T12:24:48;8.20;;;2.53;;
5452;SDS011;2749;53.576;9.822;2023-03-24T12:27:21;9.30;;;2.40;;
5452;SDS011;2749;53.576;9.822;2023-03-24T12:30:00;6.10;;;1.67;;
5452;SDS011;2749;53.576;9.822;2023-03-24T12:37:32;6.57;;;2.33;;
5452;SDS011;2749;53.576;9.822;2023-03-24T12:42:41;10.50;;;2.13;;
5452;SDS011;2749;53.576;9.822;2023-03-24T12:45:18;7.20;;;2.23;;
5452;SDS011;2749;53.576;9.822;2023-03-24T12:47:53;3.30;;;2.33;;
5452;SDS011;2749;53.576;9.822;2023-03-24T12:55:48;6.37;;;2.80;;
5452;SDS011;2749;53.576;9.822;2023-03-24T12:58:17;6.60;;;1.97;;
5452;SDS011;2749;53.576;9.822;2023-03-24T13:04:14;5.80;;;1.63;;
5452;SDS011;2749;53.576;9.822;2023-03-24T13:06:27;3.50;;;1.80;;
5452;SDS011;2749;53.576;9.822;2023-03-24T13:09:09;7.53;;;2.47;;
5452;SDS011;2749;53.576;9.822;2023-03-24T13:11:46;10.63;;;2.73;;
5452;SDS011;2749;53.576;9.822;2023-03-24T13:14:16;7.73;;;1.67;;
5452;SDS011;2749;53.576;9.822;2023-03-24T13:16:44;7.13;;;2.93;;
5452;SDS011;2749;53.576;9.822;2023-03-24T13:19:15;4.17;;;1.33;;
5452;SDS011;2749;53.576;9.822;2023-03-24T13:21:42;4.70;;;2.23;;
5452;SDS011;2749;53.576;9.822;2023-03-24T13:24:12;5.80;;;1.83;;
5452;SDS011;2749;53.576;9.822;2023-03-24T13:31:59;4.37;;;1.50;;
5452;SDS011;2749;53.576;9.822;2023-03-24T13:34:32;6.80;;;2.17;;
5452;SDS011;2749;53.576;9.822;2023-03-24T13:37:13;7.27;;;1.50;;
5452;SDS011;2749;53.576;9.822;2023-03-24T13:39:42;4.57;;;1.80;;
5452;SDS011;2749;53.576;9.822;2023-03-24T13:42:42;6.37;;;1.57;;
5452;SDS011;2749;53.576;9.822;2023-03-24T13:45:01;3.83;;;1.53;;
5452;SDS011;2749;53.576;9.822;2023-03-24T13:47:46;5.40;;;1.80;;
5452;SDS011;2749;53.576;9.822;2023-03-24T13:50:13;5.03;;;2.30;;
5452;SDS011;2749;53.576;9.822;2023-03-24T13:52:42;8.00;;;2.63;;
5452;SDS011;2749;53.576;9.822;2023-03-24T13:55:13;2.80;;;1.73;;
5452;SDS011;2749;53.576;9.822;2023-03-24T13:57:42;5.40;;;1.53;;
5452;SDS011;2749;53.576;9.822;2023-03-24T14:00:20;5.37;;;2.17;;
5452;SDS011;2749;53.576;9.822;2023-03-24T14:02:48;4.90;;;1.63;;
5452;SDS011;2749;53.576;9.822;2023-03-24T14:07:50;6.33;;;1.93;;
5452;SDS011;2749;53.576;9.822;2023-03-24T14:15:43;6.27;;;2.10;;
5452;SDS011;2749;53.576;9.822;2023-03-24T14:18:14;5.07;;;2.40;;
5452;SDS011;2749;53.576;9.822;2023-03-24T14:20:57;6.10;;;2.27;;
5452;SDS011;2749;53.576;9.822;2023-03-24T14:23:36;4.23;;;1.60;;
5452;SDS011;2749;53.576;9.822;2023-03-24T14:26:04;4.13;;;1.50;;
5452;SDS011;2749;53.576;9.822;2023-03-24T14:28:32;8.83;;;2.27;;
5452;SDS011;2749;53.576;9.822;2023-03-24T14:31:08;10.90;;;2.67;;
5452;SDS011;2749;53.576;9.822;2023-03-24T14:33:41;3.37;;;1.40;;
5452;SDS011;2749;53.576;9.822;2023-03-24T14:36:09;5.20;;;1.67;;
5452;SDS011;2749;53.576;9.822;2023-03-24T14:38:41;5.23;;;1.97;;
5452;SDS011;2749;53.576;9.822;2023-03-24T14:41:15;3.50;;;1.80;;
5452;SDS011;2749;53.576;9.822;2023-03-24T14:49:19;8.13;;;2.13;;
5452;SDS011;2749;53.576;9.822;2023-03-24T14:51:51;8.83;;;2.77;;
5452;SDS011;2749;53.576;9.822;2023-03-24T14:54:18;6.17;;;1.67;;
5452;SDS011;2749;53.576;9.822;2023-03-24T14:56:49;4.07;;;1.90;;
5452;SDS011;2749;53.576;9.822;2023-03-24T14:59:22;5.80;;;2.20;;
5452;SDS011;2749;53.576;9.822;2023-03-24T15:01:50;7.70;;;2.90;;
5452;SDS011;2749;53.576;9.822;2023-03-24T15:04:18;4.20;;;2.00;;
5452;SDS011;2749;53.576;9.822;2023-03-24T15:06:45;5.70;;;1.70;;
5452;SDS011;2749;53.576;9.822;2023-03-24T15:09:11;4.73;;;1.60;;
5452;SDS011;2749;53.576;9.822;2023-03-24T15:11:38;5.27;;;2.53;;
5452;SDS011;2749;53.576;9.822;2023-03-24T15:14:04;5.37;;;1.87;;
5452;SDS011;2749;53.576;9.822;2023-03-24T15:16:32;4.33;;;1.33;;
5452;SDS011;2749;53.576;9.822;2023-03-24T15:21:37;7.97;;;1.90;;
5452;SDS011;2749;53.576;9.822;2023-03-24T15:24:24;4.50;;;1.50;;
5452;SDS011;2749;53.576;9.822;2023-03-24T15:26:53;5.50;;;2.43;;
5452;SDS011;2749;53.576;9.822;2023-03-24T15:29:19;7.57;;;1.60;;
5452;SDS011;2749;53.576;9.822;2023-03-24T15:31:45;5.67;;;1.70;;
5452;SDS011;2749;53.576;9.822;2023-03-24T15:34:28;5.63;;;2.33;;
5452;SDS011;2749;53.576;9.822;2023-03-24T15:36:58;5.30;;;1.87;;
5452;SDS011;2749;53.576;9.822;2023-03-24T15:39:33;9.73;;;1.93;;
5452;SDS011;2749;53.576;9.822;2023-03-24T15:42:00;8.43;;;2.83;;
5452;SDS011;2749;53.576;9.822;2023-03-24T15:44:29;3.33;;;1.93;;
5452;SDS011;2749;53.576;9.822;2023-03-24T15:46:56;6.23;;;1.90;;
5452;SDS011;2749;53.576;9.822;2023-03-24T15:49:24;3.00;;;1.57;;
5452;SDS011;2749;53.576;9.822;2023-03-24T15:51:55;6.40;;;2.20;;
5452;SDS011;2749;53.576;9.822;2023-03-24T15:54:30;3.20;;;1.37;;
5452;SDS011;2749;53.576;9.822;2023-03-24T15:57:10;3.13;;;1.67;;
5452;SDS011;2749;53.576;9.822;2023-03-24T15:59:41;4.30;;;1.57;;
5452;SDS011;2749;53.576;9.822;2023-03-24T16:02:10;2.60;;;1.60;;
5452;SDS011;2749;53.576;9.822;2023-03-24T16:04:37;5.80;;;2.37;;
5452;SDS011;2749;53.576;9.822;2023-03-24T16:07:05;5.00;;;1.57;;
5452;SDS011;2749;53.576;9.822;2023-03-24T16:09:35;4.13;;;1.47;;
5452;SDS011;2749;53.576;9.822;2023-03-24T16:12:10;3.90;;;2.07;;
5452;SDS011;2749;53.576;9.822;2023-03-24T16:14:36;4.77;;;1.90;;
5452;SDS011;2749;53.576;9.822;2023-03-24T16:17:02;5.63;;;1.60;;
5452;SDS011;2749;53.576;9.822;2023-03-24T16:19:28;8.23;;;3.10;;
5452;SDS011;2749;53.576;9.822;2023-03-24T16:21:54;7.20;;;1.83;;
5452;SDS011;2749;53.576;9.822;2023-03-24T16:24:21;5.63;;;1.70;;
5452;SDS011;2749;53.576;9.822;2023-03-24T16:26:46;6.60;;;2.10;;
5452;SDS011;2749;53.576;9.822;2023-03-24T16:31:43;7.93;;;2.70;;
5452;SDS011;2749;53.576;9.822;2023-03-24T16:34:12;4.60;;;1.53;;
5452;SDS011;2749;53.576;9.822;2023-03-24T16:36:38;9.10;;;2.30;;
5452;SDS011;2749;53.576;9.822;2023-03-24T16:39:05;4.90;;;1.83;;
5452;SDS011;2749;53.576;9.822;2023-03-24T16:41:34;3.43;;;1.77;;
5452;SDS011;2749;53.576;9.822;2023-03-24T16:44:01;8.53;;;2.13;;
5452;SDS011;2749;53.576;9.822;2023-03-24T16:48:53;5.30;;;3.03;;
5452;SDS011;2749;53.576;9.822;2023-03-24T16:51:19;10.30;;;2.33;;
5452;SDS011;2749;53.576;9.822;2023-03-24T16:53:45;4.30;;;2.03;;
5452;SDS011;2749;53.576;9.822;2023-03-24T16:56:12;5.43;;;1.83;;
5452;SDS011;2749;53.576;9.822;2023-03-24T16:58:38;6.87;;;1.93;;
5452;SDS011;2749;53.576;9.822;2023-03-24T17:01:17;12.93;;;2.40;;
5452;SDS011;2749;53.576;9.822;2023-03-24T17:03:50;4.43;;;2.13;;
5452;SDS011;2749;53.576;9.822;2023-03-24T17:06:18;4.73;;;2.53;;
5452;SDS011;2749;53.576;9.822;2023-03-24T17:08:44;3.80;;;1.60;;
5452;SDS011;2749;53.576;9.822;2023-03-24T17:11:10;7.80;;;1.70;;
5452;SDS011;2749;53.576;9.822;2023-03-24T17:13:36;10.20;;;2.07;;
5452;SDS011;2749;53.576;9.822;2023-03-24T17:16:02;4.93;;;2.40;;